createdAt,value
2016-11-07T00:00:48.167Z,6.73
2016-11-07T00:02:03.106Z,6.67
2016-11-07T00:02:48.201Z,6.69
2016-11-07T00:03:48.323Z,6.73
2016-11-07T00:04:48.240Z,6.79
2016-11-07T00:06:03.480Z,6.77
2016-11-07T00:06:48.276Z,6.76
2016-11-07T00:07:48.297Z,6.67
2016-11-07T00:08:48.320Z,6.71
2016-11-07T00:09:48.341Z,6.69
2016-11-07T00:10:48.355Z,6.71
2016-11-07T00:11:48.374Z,6.7
2016-11-07T00:12:48.395Z,6.74
2016-11-07T00:13:48.410Z,6.61
2016-11-07T00:14:48.430Z,6.64
2016-11-07T00:17:48.487Z,6.73
2016-11-07T00:18:48.501Z,6.69
2016-11-07T00:19:48.524Z,6.69
2016-11-07T00:21:03.465Z,6.58
2016-11-07T00:21:48.566Z,6.58
2016-11-07T00:22:48.878Z,6.54
2016-11-07T00:23:48.630Z,6.54
2016-11-07T00:24:48.620Z,6.56
2016-11-07T00:25:48.637Z,6.61
2016-11-07T00:26:48.657Z,6.64
2016-11-07T00:28:48.688Z,6.64
2016-11-07T00:29:48.707Z,6.62
2016-11-07T00:30:48.725Z,6.58
2016-11-07T00:31:48.753Z,6.62
2016-11-07T00:32:48.801Z,6.64
2016-11-07T00:33:48.795Z,6.66
2016-11-07T00:35:03.730Z,6.55
2016-11-07T00:35:48.831Z,6.61
2016-11-07T00:36:48.841Z,6.69
2016-11-07T00:37:48.864Z,6.52
2016-11-07T00:38:48.877Z,6.55
2016-11-07T00:39:48.904Z,6.56
2016-11-07T00:40:48.920Z,6.56
2016-11-07T00:41:48.938Z,6.61
2016-11-07T00:42:48.957Z,6.52
2016-11-07T00:43:48.976Z,6.51
2016-11-07T00:44:48.996Z,6.52
2016-11-07T00:45:49.019Z,6.52
2016-11-07T00:46:49.066Z,6.52
2016-11-07T00:47:49.057Z,6.54
2016-11-07T00:48:49.066Z,6.41
2016-11-07T00:49:49.085Z,6.4
2016-11-07T00:50:49.107Z,6.37
2016-11-07T00:51:49.124Z,6.31
2016-11-07T00:53:04.068Z,6.38
2016-11-07T00:53:49.168Z,6.44
2016-11-07T00:54:49.187Z,6.44
2016-11-07T00:55:49.513Z,6.33
2016-11-07T00:56:49.220Z,6.3
2016-11-07T00:57:49.244Z,6.28
2016-11-07T00:58:49.564Z,6.34
2016-11-07T00:59:49.279Z,6.38
2016-11-07T01:00:49.325Z,6.46
2016-11-07T01:01:49.327Z,6.41
2016-11-07T01:02:49.335Z,6.43
2016-11-07T01:03:49.350Z,6.34
2016-11-07T01:04:49.364Z,6.3
2016-11-07T01:07:49.458Z,6.22
2016-11-07T01:09:04.669Z,6.14
2016-11-07T01:09:49.458Z,6.21
2016-11-07T01:10:49.478Z,6.22
2016-11-07T01:11:49.501Z,6.22
2016-11-07T01:12:49.525Z,6.17
2016-11-07T01:13:49.539Z,6.12
2016-11-07T01:14:49.551Z,6.08
2016-11-07T01:15:49.577Z,6.06
2016-11-07T01:16:49.595Z,6.18
2016-11-07T01:17:49.608Z,6.15
2016-11-07T01:18:49.627Z,6.06
2016-11-07T01:19:49.654Z,6.14
2016-11-07T01:21:04.594Z,6.18
2016-11-07T01:21:49.694Z,6.08
2016-11-07T01:22:49.703Z,6.21
2016-11-07T01:24:04.647Z,6.17
2016-11-07T01:25:04.663Z,6.04
2016-11-07T01:26:04.681Z,6.12
2016-11-07T01:26:49.781Z,6.11
2016-11-07T01:27:49.797Z,6.11
2016-11-07T01:28:49.820Z,6.06
2016-11-07T01:29:49.832Z,6.11
2016-11-07T01:30:49.852Z,6.17
2016-11-07T01:31:49.876Z,6.06
2016-11-07T01:32:49.935Z,6.04
2016-11-07T01:33:49.911Z,6.11
2016-11-07T01:34:49.930Z,6.12
2016-11-07T01:35:49.950Z,6.09
2016-11-07T01:36:49.971Z,6.06
2016-11-07T01:38:04.910Z,6.09
2016-11-07T01:38:50.006Z,5.99
2016-11-07T01:39:50.083Z,5.96
2016-11-07T01:41:04.960Z,5.99
2016-11-07T01:41:50.064Z,6.01
2016-11-07T01:42:50.076Z,5.99
2016-11-07T01:43:50.093Z,5.96
2016-11-07T01:44:50.114Z,5.97
2016-11-07T01:45:50.137Z,6
2016-11-07T01:46:50.151Z,6.08
2016-11-07T01:47:50.199Z,5.99
2016-11-07T01:48:50.196Z,6.04
2016-11-07T01:49:50.206Z,6.06
2016-11-07T01:50:50.225Z,6.08
2016-11-07T01:51:50.249Z,6.08
2016-11-07T01:53:05.190Z,6.06
2016-11-07T01:53:50.290Z,5.99
2016-11-07T01:54:50.307Z,5.85
2016-11-07T01:56:05.244Z,5.79
2016-11-07T01:57:50.363Z,5.94
2016-11-07T01:58:50.410Z,5.99
2016-11-07T01:59:50.393Z,6.04
2016-11-07T02:00:50.417Z,5.99
2016-11-07T02:01:50.432Z,6.09
2016-11-07T02:02:50.452Z,6.04
2016-11-07T02:03:50.468Z,6.12
2016-11-07T02:04:50.487Z,6.15
2016-11-07T02:05:50.504Z,6.08
2016-11-07T02:06:50.558Z,6.14
2016-11-07T02:07:50.550Z,6.15
2016-11-07T02:09:05.488Z,6.11
2016-11-07T02:09:50.589Z,6.08
2016-11-07T02:10:50.603Z,6.14
2016-11-07T02:11:50.623Z,6.06
2016-11-07T02:12:50.636Z,6.06
2016-11-07T02:13:50.657Z,6.03
2016-11-07T02:14:50.680Z,6.04
2016-11-07T02:15:50.691Z,6.06
2016-11-07T02:16:50.715Z,6.08
2016-11-07T02:17:50.728Z,6.11
2016-11-07T02:18:50.780Z,6.19
2016-11-07T02:19:50.771Z,6.04
2016-11-07T02:20:50.786Z,5.99
2016-11-07T02:21:50.811Z,5.96
2016-11-07T02:22:50.819Z,5.94
2016-11-07T02:23:50.848Z,5.86
2016-11-07T02:24:50.855Z,5.85
2016-11-07T02:25:50.893Z,5.94
2016-11-07T02:26:50.905Z,5.99
2016-11-07T02:28:05.835Z,6.04
2016-11-07T02:28:50.935Z,5.99
2016-11-07T02:29:50.957Z,6.03
2016-11-07T02:30:50.974Z,6.11
2016-11-07T02:31:50.994Z,6
2016-11-07T02:32:51.019Z,5.96
2016-11-07T02:33:51.033Z,6.06
2016-11-07T02:34:51.051Z,6.01
2016-11-07T02:35:51.064Z,6.09
2016-11-07T02:36:51.091Z,6.03
2016-11-07T02:38:51.123Z,6.11
2016-11-07T02:39:51.141Z,6.11
2016-11-07T02:41:51.187Z,6.12
2016-11-07T02:42:51.189Z,6.09
2016-11-07T02:44:06.172Z,6.03
2016-11-07T02:44:51.230Z,6.04
2016-11-07T02:45:51.251Z,6.06
2016-11-07T02:46:51.276Z,6.08
2016-11-07T02:47:51.286Z,6.08
2016-11-07T02:48:51.311Z,6.09
2016-11-07T02:49:51.368Z,6.08
2016-11-07T02:50:51.347Z,6.03
2016-11-07T02:51:51.364Z,6.11
2016-11-07T02:52:51.378Z,6.08
2016-11-07T02:54:51.416Z,6.09
2016-11-07T02:55:51.442Z,6.03
2016-11-07T02:56:51.455Z,6
2016-11-07T02:57:51.472Z,5.99
2016-11-07T02:58:51.496Z,6.12
2016-11-07T03:00:06.435Z,6.12
2016-11-07T03:00:51.528Z,5.99
2016-11-07T03:01:51.553Z,6.03
2016-11-07T03:02:51.569Z,5.97
2016-11-07T03:03:51.591Z,5.94
2016-11-07T03:04:51.611Z,5.93
2016-11-07T03:05:51.878Z,6.06
2016-11-07T03:06:51.651Z,5.93
2016-11-07T03:07:51.664Z,6
2016-11-07T03:08:51.681Z,6
2016-11-07T03:09:51.699Z,6.01
2016-11-07T03:10:51.720Z,6.01
2016-11-07T03:12:51.755Z,6.09
2016-11-07T03:13:51.773Z,6.04
2016-11-07T03:14:51.789Z,6.04
2016-11-07T03:16:06.730Z,6.06
2016-11-07T03:16:51.832Z,5.97
2016-11-07T03:17:51.846Z,6.11
2016-11-07T03:18:51.872Z,6.08
2016-11-07T03:19:51.879Z,6.06
2016-11-07T03:20:51.904Z,6.01
2016-11-07T03:21:51.922Z,6.03
2016-11-07T03:22:51.938Z,6
2016-11-07T03:23:51.957Z,6.01
2016-11-07T03:24:51.976Z,5.94
2016-11-07T03:25:51.999Z,6.06
2016-11-07T03:26:52.007Z,6.01
2016-11-07T03:27:52.030Z,5.99
2016-11-07T03:28:52.056Z,5.96
2016-11-07T03:29:52.074Z,6.06
2016-11-07T03:31:07.013Z,5.96
2016-11-07T03:31:52.110Z,5.94
2016-11-07T03:32:52.126Z,5.96
2016-11-07T03:33:52.180Z,5.94
2016-11-07T03:34:52.166Z,5.9
2016-11-07T03:35:52.183Z,5.86
2016-11-07T03:36:52.235Z,5.86
2016-11-07T03:37:52.217Z,5.96
2016-11-07T03:38:52.238Z,5.97
2016-11-07T03:39:52.254Z,5.93
2016-11-07T03:42:52.307Z,5.99
2016-11-07T03:43:52.331Z,5.96
2016-11-07T03:44:52.343Z,6.06
2016-11-07T03:45:52.364Z,5.93
2016-11-07T03:46:52.385Z,6.09
2016-11-07T03:47:52.411Z,5.96
2016-11-07T03:48:52.417Z,6.08
2016-11-07T03:49:52.436Z,5.99
2016-11-07T03:50:52.466Z,6
2016-11-07T03:51:52.476Z,6.01
2016-11-07T03:52:52.493Z,5.86
2016-11-07T03:53:52.515Z,5.82
2016-11-07T03:54:52.534Z,5.85
2016-11-07T03:55:52.554Z,5.67
2016-11-07T03:56:52.569Z,5.64
2016-11-07T03:57:52.591Z,5.65
2016-11-07T03:58:52.629Z,5.72
2016-11-07T03:59:52.653Z,5.68
2016-11-07T04:01:52.660Z,5.75
2016-11-07T04:03:07.598Z,5.6
2016-11-07T04:03:52.700Z,5.67
2016-11-07T04:04:52.713Z,5.65
2016-11-07T04:05:52.737Z,5.74
2016-11-07T04:06:52.789Z,5.75
2016-11-07T04:07:52.782Z,5.86
2016-11-07T04:08:52.787Z,5.83
2016-11-07T04:10:52.825Z,5.68
2016-11-07T04:11:52.841Z,5.75
2016-11-07T04:12:52.860Z,5.76
2016-11-07T04:13:52.880Z,5.81
2016-11-07T04:15:52.922Z,5.68
2016-11-07T04:16:52.931Z,5.67
2016-11-07T04:17:52.958Z,5.78
2016-11-07T04:19:07.892Z,5.81
2016-11-07T04:19:52.992Z,5.78
2016-11-07T04:20:53.006Z,5.83
2016-11-07T04:21:53.024Z,5.89
2016-11-07T04:22:53.046Z,5.83
2016-11-07T04:23:53.095Z,5.83
2016-11-07T04:24:53.085Z,5.83
2016-11-07T04:25:53.097Z,5.82
2016-11-07T04:26:53.130Z,5.85
2016-11-07T04:27:53.137Z,5.93
2016-11-07T04:28:53.156Z,5.83
2016-11-07T04:29:53.180Z,5.89
2016-11-07T04:31:53.209Z,5.86
2016-11-07T04:32:53.230Z,5.86
2016-11-07T04:33:53.247Z,5.91
2016-11-07T04:35:08.188Z,5.82
2016-11-07T04:35:53.295Z,5.9
2016-11-07T04:36:53.300Z,5.9
2016-11-07T04:37:53.324Z,5.86
2016-11-07T04:38:53.343Z,5.86
2016-11-07T04:39:53.356Z,5.81
2016-11-07T04:40:53.376Z,5.79
2016-11-07T04:41:53.393Z,5.79
2016-11-07T04:42:53.419Z,5.83
2016-11-07T04:43:53.432Z,5.91
2016-11-07T04:44:53.453Z,5.89
2016-11-07T04:45:53.464Z,5.89
2016-11-07T04:46:53.484Z,5.83
2016-11-07T04:47:53.500Z,5.89
2016-11-07T04:48:53.522Z,5.89
2016-11-07T04:49:53.542Z,5.9
2016-11-07T04:51:08.477Z,5.82
2016-11-07T04:51:53.575Z,5.86
2016-11-07T04:52:53.590Z,5.99
2016-11-07T04:53:53.614Z,5.91
2016-11-07T04:54:53.634Z,5.99
2016-11-07T04:55:53.650Z,6.08
2016-11-07T04:56:53.666Z,6
2016-11-07T04:57:53.683Z,5.99
2016-11-07T04:58:53.707Z,6.01
2016-11-07T04:59:53.722Z,6.11
2016-11-07T05:00:53.739Z,5.99
2016-11-07T05:01:53.763Z,6.11
2016-11-07T05:03:08.704Z,5.99
2016-11-07T05:03:53.793Z,5.99
2016-11-07T05:04:53.820Z,5.99
2016-11-07T05:06:08.756Z,6.01
2016-11-07T05:06:53.852Z,5.99
2016-11-07T05:07:53.904Z,6.06
2016-11-07T05:08:53.926Z,6.01
2016-11-07T05:09:53.912Z,5.85
2016-11-07T05:11:53.980Z,5.94
2016-11-07T05:12:53.963Z,6
2016-11-07T05:13:53.980Z,5.99
2016-11-07T05:14:54.006Z,5.97
2016-11-07T05:15:54.018Z,5.94
2016-11-07T05:17:54.055Z,5.99
2016-11-07T05:18:54.079Z,5.99
2016-11-07T05:19:54.095Z,5.96
2016-11-07T05:20:54.112Z,5.99
2016-11-07T05:21:54.136Z,5.89
2016-11-07T05:22:54.149Z,5.99
2016-11-07T05:23:54.163Z,5.85
2016-11-07T05:24:54.184Z,5.78
2016-11-07T05:25:54.201Z,5.83
2016-11-07T05:26:54.221Z,5.83
2016-11-07T05:27:54.290Z,5.94
2016-11-07T05:28:54.264Z,5.94
2016-11-07T05:29:54.280Z,5.89
2016-11-07T05:30:54.302Z,5.89
2016-11-07T05:31:54.323Z,5.94
2016-11-07T05:33:09.259Z,5.82
2016-11-07T05:33:54.353Z,5.86
2016-11-07T05:34:54.396Z,5.82
2016-11-07T05:35:54.387Z,5.93
2016-11-07T05:36:54.401Z,5.93
2016-11-07T05:38:09.347Z,5.9
2016-11-07T05:38:54.441Z,5.85
2016-11-07T05:39:54.462Z,5.96
2016-11-07T05:40:54.479Z,5.97
2016-11-07T05:41:54.502Z,6.06
2016-11-07T05:42:54.513Z,6.03
2016-11-07T05:43:54.541Z,6.01
2016-11-07T05:44:54.557Z,6.09
2016-11-07T05:45:54.573Z,6
2016-11-07T05:46:54.585Z,6
2016-11-07T05:47:54.615Z,6.04
2016-11-07T05:48:54.624Z,5.97
2016-11-07T05:50:54.690Z,5.97
2016-11-07T05:51:54.682Z,5.9
2016-11-07T05:53:09.620Z,6.03
2016-11-07T05:54:09.639Z,5.97
2016-11-07T05:54:54.737Z,5.99
2016-11-07T05:55:54.754Z,5.93
2016-11-07T05:56:54.779Z,5.96
2016-11-07T05:57:54.798Z,5.9
2016-11-07T05:58:54.813Z,5.91
2016-11-07T05:59:54.827Z,5.81
2016-11-07T06:00:54.848Z,6.03
2016-11-07T06:01:54.871Z,5.93
2016-11-07T06:02:54.887Z,5.94
2016-11-07T06:03:54.899Z,5.89
2016-11-07T06:04:54.922Z,5.89
2016-11-07T06:06:09.863Z,5.96
2016-11-07T06:06:54.956Z,5.97
2016-11-07T06:07:54.972Z,5.9
2016-11-07T06:09:09.915Z,5.91
2016-11-07T06:10:09.937Z,5.85
2016-11-07T06:10:55.040Z,5.89
2016-11-07T06:11:55.047Z,5.9
2016-11-07T06:12:55.067Z,5.82
2016-11-07T06:13:55.092Z,5.75
2016-11-07T06:14:55.106Z,5.64
2016-11-07T06:15:55.121Z,5.79
2016-11-07T06:17:55.160Z,5.68
2016-11-07T06:18:55.180Z,5.81
2016-11-07T06:19:55.202Z,5.75
2016-11-07T06:20:55.222Z,5.78
2016-11-07T06:21:55.241Z,5.94
2016-11-07T06:22:55.249Z,5.96
2016-11-07T06:23:55.272Z,5.82
2016-11-07T06:24:55.285Z,5.94
2016-11-07T06:26:10.231Z,5.89
2016-11-07T06:26:55.330Z,5.86
2016-11-07T06:27:55.348Z,5.9
2016-11-07T06:28:55.366Z,6.01
2016-11-07T06:29:55.382Z,6.03
2016-11-07T06:30:55.404Z,6.01
2016-11-07T06:31:55.423Z,5.93
2016-11-07T06:32:55.464Z,5.93
2016-11-07T06:33:55.456Z,6
2016-11-07T06:34:55.468Z,5.93
2016-11-07T06:35:55.495Z,5.93
2016-11-07T06:37:10.435Z,5.96
2016-11-07T06:37:55.529Z,5.94
2016-11-07T06:38:55.551Z,6.01
2016-11-07T06:39:55.561Z,6
2016-11-07T06:41:10.505Z,5.93
2016-11-07T06:41:55.603Z,5.96
2016-11-07T06:42:55.622Z,5.96
2016-11-07T06:44:55.662Z,6.09
2016-11-07T06:46:55.699Z,5.96
2016-11-07T06:47:55.715Z,6.01
2016-11-07T06:48:55.732Z,6.03
2016-11-07T06:49:55.747Z,6.01
2016-11-07T06:50:55.766Z,6
2016-11-07T06:51:55.785Z,5.96
2016-11-07T06:52:55.805Z,5.99
2016-11-07T06:53:55.819Z,6.01
2016-11-07T06:54:55.848Z,6.03
2016-11-07T06:56:10.782Z,6.09
2016-11-07T06:56:55.879Z,5.99
2016-11-07T06:57:55.902Z,6.03
2016-11-07T06:58:55.915Z,5.99
2016-11-07T06:59:55.938Z,6.06
2016-11-07T07:00:55.954Z,6.11
2016-11-07T07:01:55.970Z,6.14
2016-11-07T07:02:55.990Z,6.06
2016-11-07T07:03:56.016Z,6.06
2016-11-07T07:04:56.026Z,6
2016-11-07T07:05:56.349Z,5.96
2016-11-07T07:07:56.086Z,6.08
2016-11-07T07:08:56.096Z,6.09
2016-11-07T07:10:11.043Z,5.99
2016-11-07T07:10:56.133Z,6.03
2016-11-07T07:12:11.076Z,6
2016-11-07T07:13:11.097Z,6.04
2016-11-07T07:13:56.224Z,6.04
2016-11-07T07:14:56.213Z,6.06
2016-11-07T07:15:56.235Z,6.04
2016-11-07T07:16:56.247Z,6.01
2016-11-07T07:17:56.263Z,6.11
2016-11-07T07:18:56.291Z,6.09
2016-11-07T07:20:56.321Z,6.11
2016-11-07T07:21:56.339Z,5.96
2016-11-07T07:22:56.353Z,5.91
2016-11-07T07:23:56.375Z,5.96
2016-11-07T07:24:56.394Z,6.03
2016-11-07T07:27:11.354Z,6.06
2016-11-07T07:27:56.463Z,6.11
2016-11-07T07:29:11.392Z,6.09
2016-11-07T07:29:56.484Z,6.03
2016-11-07T07:30:56.507Z,6.03
2016-11-07T07:31:56.526Z,6.06
2016-11-07T07:32:56.542Z,6.08
2016-11-07T07:33:56.564Z,6.14
2016-11-07T07:35:56.601Z,6.06
2016-11-07T07:36:56.616Z,6.11
2016-11-07T07:37:56.648Z,6.22
2016-11-07T07:38:56.679Z,6.08
2016-11-07T07:39:56.671Z,6.06
2016-11-07T07:40:56.686Z,6.08
2016-11-07T07:41:56.707Z,6.12
2016-11-07T07:42:56.730Z,6.09
2016-11-07T07:43:56.748Z,6.08
2016-11-07T07:45:11.689Z,6.09
2016-11-07T07:46:11.705Z,6.08
2016-11-07T07:46:56.807Z,6.09
2016-11-07T07:47:56.832Z,6.09
2016-11-07T07:48:56.840Z,6.15
2016-11-07T07:49:56.858Z,6.09
2016-11-07T07:50:56.878Z,6.09
2016-11-07T07:51:56.896Z,6.14
2016-11-07T07:52:56.949Z,6.18
2016-11-07T07:53:56.933Z,6.17
2016-11-07T07:55:56.969Z,6.15
2016-11-07T07:56:56.989Z,6.18
2016-11-07T07:58:11.927Z,6.21
2016-11-07T07:58:57.026Z,6.25
2016-11-07T07:59:57.049Z,6.25
2016-11-07T08:01:11.981Z,6.15
2016-11-07T08:01:57.082Z,6.15
2016-11-07T08:02:57.102Z,6.21
2016-11-07T08:03:57.119Z,6.34
2016-11-07T08:04:57.135Z,6.28
2016-11-07T08:05:57.152Z,6.31
2016-11-07T08:06:57.179Z,6.31
2016-11-07T08:07:57.188Z,6.34
2016-11-07T08:08:57.209Z,6.46
2016-11-07T08:09:57.229Z,6.48
2016-11-07T08:10:57.247Z,6.54
2016-11-07T08:11:57.267Z,6.41
2016-11-07T08:13:57.298Z,6.37
2016-11-07T08:16:12.261Z,6.37
2016-11-07T08:16:57.360Z,6.48
2016-11-07T08:17:57.384Z,6.34
2016-11-07T08:18:57.391Z,6.28
2016-11-07T08:19:57.421Z,6.38
2016-11-07T08:20:57.440Z,6.49
2016-11-07T08:21:57.463Z,6.55
2016-11-07T08:23:57.487Z,6.37
2016-11-07T08:24:57.554Z,6.46
2016-11-07T08:27:57.565Z,6.58
2016-11-07T08:28:57.590Z,6.71
2016-11-07T08:29:57.608Z,6.7
2016-11-07T08:31:12.545Z,6.48
2016-11-07T08:31:57.949Z,6.46
2016-11-07T08:32:57.663Z,6.19
2016-11-07T08:33:57.681Z,6.15
2016-11-07T08:34:57.705Z,6.12
2016-11-07T08:35:57.714Z,6.08
2016-11-07T08:36:57.736Z,6.17
2016-11-07T08:37:57.756Z,6.12
2016-11-07T08:38:57.768Z,6.01
2016-11-07T08:39:57.796Z,6
2016-11-07T08:40:57.824Z,6.03
2016-11-07T08:41:57.834Z,6.11
2016-11-07T08:43:57.866Z,6.03
2016-11-07T08:44:57.883Z,6.08
2016-11-07T08:45:57.905Z,6.08
2016-11-07T08:46:57.930Z,6.06
2016-11-07T08:48:12.862Z,6.18
2016-11-07T08:48:57.961Z,6.14
2016-11-07T08:49:58.238Z,6.19
2016-11-07T08:50:57.996Z,6.22
2016-11-07T08:51:58.022Z,6.17
2016-11-07T08:52:58.042Z,6.18
2016-11-07T08:53:58.061Z,6.19
2016-11-07T08:54:58.078Z,6.25
2016-11-07T08:55:58.092Z,6.33
2016-11-07T08:56:58.109Z,6.36
2016-11-07T08:57:58.131Z,6.56
2016-11-07T09:01:13.109Z,6.77
2016-11-07T09:02:13.127Z,6.81
2016-11-07T09:02:58.233Z,6.8
2016-11-07T09:04:13.175Z,6.55
2016-11-07T09:04:58.260Z,6.38
2016-11-07T09:05:58.283Z,6.54
2016-11-07T09:06:58.310Z,6.54
2016-11-07T09:07:58.318Z,6.55
2016-11-07T09:08:58.368Z,6.41
2016-11-07T09:09:58.353Z,6.33
2016-11-07T09:10:58.373Z,6.28
2016-11-07T09:11:58.396Z,6.37
2016-11-07T09:12:58.415Z,6.46
2016-11-07T09:13:58.441Z,6.61
2016-11-07T09:14:58.450Z,6.77
2016-11-07T09:16:13.397Z,6.97
2016-11-07T09:16:58.494Z,6.84
2016-11-07T09:17:58.516Z,6.79
2016-11-07T09:18:58.531Z,6.88
2016-11-07T09:20:13.470Z,6.73
2016-11-07T09:20:58.566Z,6.62
2016-11-07T09:21:58.582Z,6.59
2016-11-07T09:22:58.606Z,6.59
2016-11-07T09:23:58.774Z,6.74
2016-11-07T09:24:58.676Z,6.77
2016-11-07T09:25:58.666Z,7.13
2016-11-07T09:26:58.684Z,7.15
2016-11-07T09:27:58.697Z,7.13
2016-11-07T09:28:58.721Z,6.97
2016-11-07T09:29:58.749Z,6.89
2016-11-07T09:31:13.685Z,6.77
2016-11-07T09:31:58.784Z,6.8
2016-11-07T09:32:58.792Z,6.8
2016-11-07T09:33:58.818Z,6.73
2016-11-07T09:34:58.841Z,6.59
2016-11-07T09:36:13.772Z,6.74
2016-11-07T09:36:58.875Z,6.58
2016-11-07T09:37:58.892Z,6.41
2016-11-07T09:38:58.913Z,6.3
2016-11-07T09:39:58.933Z,6.36
2016-11-07T09:40:58.953Z,6.33
2016-11-07T09:41:59.276Z,6.49
2016-11-07T09:42:58.985Z,6.52
2016-11-07T09:43:59.009Z,6.56
2016-11-07T09:44:59.026Z,6.69
2016-11-07T09:45:59.048Z,6.62
2016-11-07T09:46:59.064Z,6.71
2016-11-07T09:48:14.277Z,6.7
2016-11-07T09:48:59.106Z,6.55
2016-11-07T09:49:59.137Z,6.58
2016-11-07T09:51:14.068Z,6.49
2016-11-07T09:52:59.180Z,6.54
2016-11-07T09:53:59.200Z,6.59
2016-11-07T09:54:59.218Z,6.62
2016-11-07T09:55:59.242Z,6.58
2016-11-07T09:56:59.251Z,6.66
2016-11-07T09:57:59.277Z,6.7
2016-11-07T09:58:59.304Z,6.71
2016-11-07T09:59:59.316Z,6.77
2016-11-07T10:00:59.337Z,6.77
2016-11-07T10:02:14.279Z,6.97
2016-11-07T10:02:59.372Z,6.99
2016-11-07T10:03:59.698Z,7.09
2016-11-07T10:04:59.404Z,7.1
2016-11-07T10:05:59.434Z,7.25
2016-11-07T10:07:14.369Z,7.28
2016-11-07T10:07:59.468Z,7.07
2016-11-07T10:08:59.487Z,7.16
2016-11-07T10:09:59.503Z,7.03
2016-11-07T10:10:59.529Z,6.94
2016-11-07T10:11:59.548Z,6.97
2016-11-07T10:12:59.568Z,7.15
2016-11-07T10:13:59.588Z,7.06
2016-11-07T10:14:59.601Z,7.12
2016-11-07T10:15:59.618Z,7.09
2016-11-07T10:16:59.642Z,7.13
2016-11-07T10:17:59.704Z,7.24
2016-11-07T10:21:14.642Z,7.34
2016-11-07T10:21:59.737Z,7.37
2016-11-07T10:23:14.682Z,7.42
2016-11-07T10:23:59.781Z,7.45
2016-11-07T10:24:59.797Z,7.52
2016-11-07T10:25:59.814Z,7.49
2016-11-07T10:26:59.832Z,7.6
2016-11-07T10:27:59.859Z,7.5
2016-11-07T10:28:59.881Z,7.5
2016-11-07T10:29:59.994Z,7.43
2016-11-07T10:30:59.916Z,7.39
2016-11-07T10:31:59.970Z,7.2
2016-11-07T10:32:59.955Z,6.92
2016-11-07T10:33:59.972Z,6.76
2016-11-07T10:35:00.002Z,6.7
2016-11-07T10:36:00.015Z,6.49
2016-11-07T10:37:00.031Z,6.51
2016-11-07T10:38:00.056Z,6.41
2016-11-07T10:39:14.993Z,6.41
2016-11-07T10:40:00.092Z,6.46
2016-11-07T10:41:00.111Z,6.43
2016-11-07T10:42:00.138Z,6.56
2016-11-07T10:43:00.154Z,6.56
2016-11-07T10:44:00.171Z,6.71
2016-11-07T10:45:00.191Z,6.73
2016-11-07T10:46:00.204Z,6.67
2016-11-07T10:47:00.224Z,6.55
2016-11-07T10:48:00.275Z,6.51
2016-11-07T10:49:00.266Z,6.38
2016-11-07T10:50:00.313Z,6.41
2016-11-07T10:51:15.227Z,6.49
2016-11-07T10:52:00.326Z,6.48
2016-11-07T10:53:00.349Z,6.37
2016-11-07T10:54:15.281Z,6.43
2016-11-07T10:55:15.304Z,6.36
2016-11-07T10:56:15.319Z,6.34
2016-11-07T10:57:00.447Z,6.36
2016-11-07T10:58:00.438Z,6.55
2016-11-07T10:59:00.455Z,6.58
2016-11-07T11:00:00.474Z,6.62
2016-11-07T11:01:00.497Z,6.76
2016-11-07T11:02:00.516Z,6.69
2016-11-07T11:03:00.572Z,6.67
2016-11-07T11:04:00.560Z,6.64
2016-11-07T11:05:00.577Z,6.66
2016-11-07T11:07:01.033Z,6.48
2016-11-07T11:08:00.626Z,6.3
2016-11-07T11:09:00.643Z,6.56
2016-11-07T11:10:00.664Z,6.55
2016-11-07T11:11:15.609Z,6.62
2016-11-07T11:12:00.706Z,6.62
2016-11-07T11:13:00.721Z,6.55
2016-11-07T11:14:00.745Z,6.52
2016-11-07T11:15:00.769Z,6.58
2016-11-07T11:16:00.784Z,6.55
2016-11-07T11:17:00.803Z,6.55
2016-11-07T11:18:00.820Z,6.59
2016-11-07T11:20:00.864Z,6.69
2016-11-07T11:21:00.914Z,6.81
2016-11-07T11:22:00.895Z,6.97
2016-11-07T11:23:00.925Z,6.88
2016-11-07T11:24:00.935Z,6.84
2016-11-07T11:25:00.960Z,6.95
2016-11-07T11:26:15.897Z,7.15
2016-11-07T11:27:01.002Z,7.09
2016-11-07T11:28:01.016Z,6.99
2016-11-07T11:29:01.038Z,7.02
2016-11-07T11:30:01.051Z,6.98
2016-11-07T11:31:01.073Z,7.02
2016-11-07T11:32:01.094Z,7.1
2016-11-07T11:33:01.115Z,7.15
2016-11-07T11:34:01.135Z,7.15
2016-11-07T11:35:01.154Z,6.92
2016-11-07T11:36:01.179Z,6.84
2016-11-07T11:37:01.188Z,6.77
2016-11-07T11:38:02.209Z,6.95
2016-11-07T11:39:16.152Z,7.06
2016-11-07T11:40:01.244Z,7.09
2016-11-07T11:41:01.265Z,6.97
2016-11-07T11:42:01.290Z,6.98
2016-11-07T11:43:01.313Z,6.91
2016-11-07T11:44:01.328Z,6.8
2016-11-07T11:45:01.349Z,6.73
2016-11-07T11:46:01.370Z,6.73
2016-11-07T11:47:01.388Z,6.84
2016-11-07T11:48:01.404Z,6.89
2016-11-07T11:50:01.444Z,6.77
2016-11-07T11:51:01.463Z,6.71
2016-11-07T11:52:01.482Z,6.73
2016-11-07T11:53:01.502Z,6.79
2016-11-07T11:54:01.520Z,6.74
2016-11-07T11:55:01.539Z,6.77
2016-11-07T11:56:01.557Z,7.03
2016-11-07T11:57:01.581Z,7.17
2016-11-07T11:58:16.520Z,7.35
2016-11-07T11:59:16.539Z,7.27
2016-11-07T12:00:01.644Z,7.12
2016-11-07T12:01:01.691Z,7.07
2016-11-07T12:02:01.675Z,7.05
2016-11-07T12:03:01.696Z,6.98
2016-11-07T12:04:01.713Z,6.92
2016-11-07T12:05:01.734Z,6.84
2016-11-07T12:06:01.757Z,6.95
2016-11-07T12:07:01.788Z,6.95
2016-11-07T12:08:01.793Z,6.95
2016-11-07T12:09:01.812Z,6.98
2016-11-07T12:10:01.838Z,6.89
2016-11-07T12:11:01.853Z,6.97
2016-11-07T12:12:01.866Z,6.95
2016-11-07T12:13:16.813Z,6.84
2016-11-07T12:14:16.834Z,6.85
2016-11-07T12:15:01.932Z,6.89
2016-11-07T12:16:01.952Z,6.94
2016-11-07T12:17:01.974Z,7.09
2016-11-07T12:18:01.988Z,7.2
2016-11-07T12:19:02.305Z,7.15
2016-11-07T12:20:02.030Z,7.27
2016-11-07T12:21:02.050Z,7.24
2016-11-07T12:22:02.068Z,7.24
2016-11-07T12:23:02.083Z,7.24
2016-11-07T12:24:02.106Z,7.27
2016-11-07T12:25:02.126Z,7.12
2016-11-07T12:26:02.141Z,7.2
2016-11-07T12:27:02.163Z,7.1
2016-11-07T12:28:02.178Z,7.1
2016-11-07T12:29:02.200Z,6.97
2016-11-07T12:30:17.143Z,7.02
2016-11-07T12:31:02.236Z,7.12
2016-11-07T12:32:02.265Z,7.16
2016-11-07T12:33:02.286Z,7.13
2016-11-07T12:34:02.296Z,7.13
2016-11-07T12:35:02.322Z,7.23
2016-11-07T12:36:02.437Z,7.25
2016-11-07T12:38:02.372Z,7.2
2016-11-07T12:39:02.396Z,7.23
2016-11-07T12:40:17.341Z,6.98
2016-11-07T12:41:02.438Z,6.95
2016-11-07T12:42:02.449Z,7.09
2016-11-07T12:43:02.480Z,7.15
2016-11-07T12:44:02.491Z,7.13
2016-11-07T12:45:02.519Z,7.12
2016-11-07T12:46:17.452Z,7.12
2016-11-07T12:47:02.668Z,7.27
2016-11-07T12:48:02.570Z,7.06
2016-11-07T12:49:02.594Z,6.97
2016-11-07T12:50:02.610Z,7.02
2016-11-07T12:51:02.633Z,7.02
2016-11-07T12:52:02.654Z,6.98
2016-11-07T12:53:02.669Z,7.1
2016-11-07T12:54:02.692Z,7.21
2016-11-07T12:55:02.706Z,7.16
2016-11-07T12:56:02.767Z,7.12
2016-11-07T12:57:02.740Z,7.12
2016-11-07T12:58:17.692Z,7.2
2016-11-07T12:59:02.782Z,7.09
2016-11-07T13:01:17.748Z,7.06
2016-11-07T13:02:02.848Z,7.05
2016-11-07T13:03:02.869Z,7.05
2016-11-07T13:04:02.885Z,7.05
2016-11-07T13:05:02.900Z,6.95
2016-11-07T13:06:02.953Z,6.97
2016-11-07T13:07:02.940Z,6.95
2016-11-07T13:08:02.964Z,6.89
2016-11-07T13:09:02.982Z,6.88
2016-11-07T13:10:02.995Z,6.74
2016-11-07T13:11:03.015Z,6.81
2016-11-07T13:12:03.040Z,6.77
2016-11-07T13:13:03.058Z,6.91
2016-11-07T13:14:03.076Z,6.8
2016-11-07T13:15:03.098Z,6.88
2016-11-07T13:16:03.118Z,6.91
2016-11-07T13:17:03.143Z,6.95
2016-11-07T13:18:03.155Z,6.97
2016-11-07T13:19:03.171Z,6.95
2016-11-07T13:20:03.198Z,7.02
2016-11-07T13:21:03.208Z,6.98
2016-11-07T13:22:03.232Z,7.09
2016-11-07T13:23:03.250Z,7.13
2016-11-07T13:24:03.274Z,7.07
2016-11-07T13:25:03.292Z,6.91
2016-11-07T13:26:03.323Z,6.87
2016-11-07T13:27:03.327Z,6.79
2016-11-07T13:28:03.347Z,6.87
2016-11-07T13:29:03.369Z,6.98
2016-11-07T13:30:03.391Z,6.94
2016-11-07T13:31:03.445Z,7.05
2016-11-07T13:33:18.369Z,6.98
2016-11-07T13:34:03.465Z,6.98
2016-11-07T13:35:03.523Z,7.03
2016-11-07T13:36:18.723Z,6.77
2016-11-07T13:37:03.515Z,6.85
2016-11-07T13:38:03.574Z,6.79
2016-11-07T13:39:03.560Z,6.81
2016-11-07T13:40:03.582Z,6.91
2016-11-07T13:41:03.592Z,6.97
2016-11-07T13:42:03.620Z,6.94
2016-11-07T13:44:03.653Z,6.77
2016-11-07T13:45:03.972Z,6.73
2016-11-07T13:47:18.635Z,6.84
2016-11-07T13:48:03.730Z,6.88
2016-11-07T13:49:18.674Z,6.89
2016-11-07T13:50:03.769Z,7.02
2016-11-07T13:51:03.789Z,6.88
2016-11-07T13:52:03.806Z,6.89
2016-11-07T13:53:03.826Z,6.88
2016-11-07T13:55:03.871Z,6.97
2016-11-07T13:56:03.888Z,6.84
2016-11-07T13:57:03.909Z,6.8
2016-11-07T13:58:03.917Z,6.91
2016-11-07T13:59:03.945Z,6.84
2016-11-07T14:00:03.960Z,6.81
2016-11-07T14:01:03.981Z,6.87
2016-11-07T14:02:03.997Z,6.85
2016-11-07T14:03:04.017Z,6.8
2016-11-07T14:04:04.036Z,6.87
2016-11-07T14:05:18.980Z,6.74
2016-11-07T14:06:04.079Z,6.67
2016-11-07T14:07:04.096Z,6.64
2016-11-07T14:08:04.121Z,6.64
2016-11-07T14:09:04.137Z,6.73